Terminal Aerodrome Forecast
Issued by NWS

Home | Current Version | Previous Version | Text Only | Print | Product List | Glossary On
Versions: 1 2 3 4 5 6 7 8 9 10 11 12 13 14 15 16 17 18 19 20
350
FTUS46 KPDT 101140
TAFDLS
TAF
KDLS 101140Z 1012/1112 31007KT 5SM -SHSN BR SCT020 OVC035
      TEMPO 1012/1014 1SM -SN BR OVC025
     FM101500 32005KT 6SM BR BKN040
     FM102300 VRB03KT P6SM BKN050 BKN120
     FM110600 31006KT P6SM VCSH BKN050 BKN090=

USA.gov is the U.S. government's official web portal to all federal, state and local government web resources and services.